createdAt,value
2022-12-13T00:13:58.936Z,1
2022-12-13T00:44:02.000Z,1.0
2022-12-13T01:14:09.734Z,1
2022-12-13T01:44:11.595Z,1
2022-12-13T02:14:14.000Z,1.0
2022-12-13T02:44:22.541Z,1
2022-12-13T03:14:24.000Z,1.0
2022-12-13T03:44:30.000Z,1.0
2022-12-13T04:14:35.000Z,1.0
2022-12-13T04:44:40.000Z,2.0
2022-12-13T05:14:44.000Z,1.0
2022-12-13T05:44:50.000Z,1.0
2022-12-13T06:14:52.061Z,1
2022-12-13T06:45:06.051Z,1
2022-12-13T07:15:16.101Z,4
2022-12-13T07:45:17.945Z,14
2022-12-13T08:15:27.874Z,31
2022-12-13T08:45:30.746Z,40
2022-12-13T09:15:32.699Z,44
2022-12-13T09:45:37.741Z,51
2022-12-13T10:15:41.634Z,68
2022-12-13T10:45:52.559Z,69
2022-12-13T11:15:57.543Z,81
2022-12-13T11:45:59.540Z,94
2022-12-13T12:16:01.482Z,76
2022-12-13T12:46:05.443Z,71
2022-12-13T13:16:08.375Z,67
2022-12-13T13:46:19.369Z,57
2022-12-13T14:16:20.394Z,39
2022-12-13T14:46:29.284Z,21
2022-12-13T15:16:35.195Z,6
2022-12-13T15:46:39.250Z,0
2022-12-13T16:16:47.229Z,0
2022-12-13T16:46:53.213Z,0
2022-12-13T16:47:04.112Z,0
2022-12-13T16:47:14.203Z,0
2022-12-13T17:17:41.137Z,0
2022-12-13T17:47:46.521Z,0
2022-12-13T18:17:50.469Z,0
2022-12-13T18:47:53.447Z,0
2022-12-13T19:18:01.381Z,0
2022-12-13T19:48:02.322Z,0
2022-12-13T20:18:08.330Z,0
2022-12-13T20:48:15.271Z,0
2022-12-13T21:18:19.175Z,0
2022-12-13T21:48:21.164Z,0
2022-12-13T22:18:25.122Z,0
2022-12-13T22:48:32.121Z,0
2022-12-13T23:18:42.043Z,0
2022-12-13T23:48:47.042Z,0
